createdAt,value
2018-10-12T00:01:37.815Z,99964.36
2018-10-12T00:04:08.620Z,99955.11
2018-10-12T00:06:39.533Z,99959.36
2018-10-12T00:09:13.283Z,99964.98
2018-10-12T00:11:44.144Z,99965.95
2018-10-12T00:14:14.460Z,99946.96
2018-10-12T00:16:46.061Z,99967.50
2018-10-12T00:19:17.029Z,99974.41
2018-10-12T00:21:47.565Z,99975.03
2018-10-12T00:24:17.657Z,99974.78
2018-10-12T00:26:47.905Z,99975.16
2018-10-12T00:31:52.705Z,99991.85
2018-10-12T00:34:23.447Z,99991.93
2018-10-12T00:36:54.807Z,99998.42
2018-10-12T00:39:25.414Z,99997.59
2018-10-12T00:41:55.624Z,100000.75
2018-10-12T00:44:25.631Z,100008.88
2018-10-12T00:47:03.387Z,99996.92
2018-10-12T00:49:34.344Z,99999.07
2018-10-12T00:52:04.711Z,99998.17
2018-10-12T00:54:35.207Z,100000.88
2018-10-12T00:57:09.605Z,100000.52
2018-10-12T00:59:40.280Z,100000.59
2018-10-12T01:02:12.731Z,99993.65
2018-10-12T01:04:43.039Z,99994.73
2018-10-12T01:07:13.279Z,99994.73
2018-10-12T01:09:44.320Z,99989.25
2018-10-12T01:12:38.675Z,99993.83
2018-10-12T01:15:09.527Z,99989.91
2018-10-12T01:17:40.461Z,99988.77
2018-10-12T01:20:12.901Z,99989.98
2018-10-12T01:22:43.166Z,99995.18
2018-10-12T01:25:13.800Z,99999.62
2018-10-12T01:27:46.209Z,100004.34
2018-10-12T01:30:18.340Z,100002.23
2018-10-12T01:32:53.762Z,100008.38
2018-10-12T01:35:25.049Z,99998.91
2018-10-12T01:37:55.930Z,99995.73
2018-10-12T01:40:25.653Z,99996.36
2018-10-12T01:42:56.863Z,99993.08
2018-10-12T01:45:31.712Z,99998.25
2018-10-12T01:48:04.468Z,100000.44
2018-10-12T01:50:35.648Z,100006.20
2018-10-12T01:53:07.540Z,100001.34
2018-10-12T01:55:41.705Z,100005.48
2018-10-12T01:58:16.524Z,100016.22
2018-10-12T02:00:49.963Z,100018.39
2018-10-12T02:03:20.990Z,100025.30
2018-10-12T02:05:57.442Z,100021.17
2018-10-12T02:08:31.503Z,100021.90
2018-10-12T02:11:02.785Z,100027.23
2018-10-12T02:13:34.701Z,100028.06
2018-10-12T02:16:04.356Z,100022.30
2018-10-12T02:18:36.914Z,100022.11
2018-10-12T02:21:07.308Z,100034.90
2018-10-12T02:23:39.633Z,100044.97
2018-10-12T02:26:12.502Z,100048.95
2018-10-12T02:28:44.488Z,99979.09
2018-10-12T02:31:14.373Z,100054.88
2018-10-12T02:33:45.414Z,100067.36
2018-10-12T02:36:15.716Z,100064.97
2018-10-12T02:38:47.182Z,100065.34
2018-10-12T02:41:17.699Z,100061.59
2018-10-12T02:43:48.459Z,100068.80
2018-10-12T02:46:19.231Z,100064.03
2018-10-12T02:48:49.806Z,100070.73
2018-10-12T02:51:19.991Z,100076.28
2018-10-12T02:53:51.708Z,100065.03
2018-10-12T02:56:24.639Z,100068.67
2018-10-12T02:58:56.580Z,100072.60
2018-10-12T03:01:28.294Z,100077.87
2018-10-12T03:03:59.615Z,100076.05
2018-10-12T03:06:31.021Z,100078.48
2018-10-12T03:09:01.919Z,100081.52
2018-10-12T03:11:33.521Z,100091.34
2018-10-12T03:14:03.749Z,100084.22
2018-10-12T03:16:34.668Z,100092.45
2018-10-12T03:19:06.544Z,100105.25
2018-10-12T03:24:05.598Z,100101.11
2018-10-12T03:26:36.985Z,100002.52
2018-10-12T03:29:08.582Z,100116.97
2018-10-12T03:31:39.720Z,100115.09
2018-10-12T03:34:11.597Z,100115.81
2018-10-12T03:36:41.278Z,100116.80
2018-10-12T03:39:12.129Z,100109.56
2018-10-12T03:41:43.703Z,100120.17
2018-10-12T03:44:13.776Z,100117.66
2018-10-12T03:46:45.257Z,100123.61
2018-10-12T03:49:15.993Z,100126.07
2018-10-12T03:51:46.484Z,100134.51
2018-10-12T03:54:17.289Z,100135.69
2018-10-12T03:56:49.411Z,100131.48
2018-10-12T03:59:21.475Z,100134.02
2018-10-12T04:01:51.703Z,100129.20
2018-10-12T04:04:22.654Z,100149.14
2018-10-12T04:06:53.402Z,100155.36
2018-10-12T04:09:25.233Z,100161.45
2018-10-12T04:11:56.188Z,100143.45
2018-10-12T04:14:28.856Z,100151.23
2018-10-12T04:16:58.568Z,100153.85
2018-10-12T04:19:32.957Z,100153.85
2018-10-12T04:22:02.562Z,100155.70
2018-10-12T04:24:33.299Z,100152.06
2018-10-12T04:27:04.973Z,100155.81
2018-10-12T04:29:35.857Z,100160.13
2018-10-12T04:32:06.493Z,100166.41
2018-10-12T04:34:38.106Z,100166.41
2018-10-12T04:37:08.495Z,100160.27
2018-10-12T04:40:02.473Z,100165.69
2018-10-12T04:42:33.564Z,100172.94
2018-10-12T04:45:06.130Z,100194.83
2018-10-12T04:47:36.792Z,100193.69
2018-10-12T04:50:07.340Z,100191.84
2018-10-12T04:52:38.381Z,100199.94
2018-10-12T04:55:11.563Z,100203.34
2018-10-12T04:57:45.585Z,100207.73
2018-10-12T05:00:23.375Z,100216.72
2018-10-12T05:02:54.152Z,100212.90
2018-10-12T05:05:25.036Z,100223.44
2018-10-12T05:07:55.856Z,100207.58
2018-10-12T05:10:26.219Z,100217.43
2018-10-12T05:12:56.839Z,100219.74
2018-10-12T05:15:27.813Z,100227.86
2018-10-12T05:17:58.410Z,100226.39
2018-10-12T05:20:29.916Z,100227.98
2018-10-12T05:23:00.186Z,100231.00
2018-10-12T05:25:31.038Z,100229.45
2018-10-12T05:28:02.222Z,100213.87
2018-10-12T05:30:33.380Z,100233.81
2018-10-12T05:33:03.377Z,100233.70
2018-10-12T05:35:34.473Z,100241.38
2018-10-12T05:38:05.474Z,100242.31
2018-10-12T05:40:35.940Z,100250.38
2018-10-12T05:43:08.076Z,100262.31
2018-10-12T05:45:40.356Z,100261.70
2018-10-12T05:48:20.781Z,100269.13
2018-10-12T05:50:50.767Z,100258.95
2018-10-12T05:53:21.885Z,100264.63
2018-10-12T05:55:53.100Z,100262.30
2018-10-12T05:58:24.530Z,100268.08
2018-10-12T06:01:02.512Z,100284.48
2018-10-12T06:03:33.605Z,100287.83
2018-10-12T06:06:04.939Z,100284.92
2018-10-12T06:08:35.334Z,100284.94
2018-10-12T06:11:05.794Z,100280.95
2018-10-12T06:13:36.155Z,100178.73
2018-10-12T06:16:06.656Z,100275.73
2018-10-12T06:18:36.774Z,100284.12
2018-10-12T06:21:06.500Z,100293.94
2018-10-12T06:23:39.368Z,100302.63
2018-10-12T06:26:13.300Z,100308.89
2018-10-12T06:28:44.529Z,100227.48
2018-10-12T06:31:15.824Z,100332.23
2018-10-12T06:33:47.116Z,100336.98
2018-10-12T06:36:17.907Z,100329.98
2018-10-12T06:38:48.732Z,100340.34
2018-10-12T06:41:20.668Z,100340.11
2018-10-12T06:43:51.215Z,100264.08
2018-10-12T06:46:20.964Z,100353.79
2018-10-12T06:48:52.066Z,100364.58
2018-10-12T06:51:22.237Z,100365.73
2018-10-12T06:53:52.698Z,100369.08
2018-10-12T06:56:22.668Z,100380.31
2018-10-12T06:58:54.082Z,100391.24
2018-10-12T07:01:25.961Z,100388.50
2018-10-12T07:03:57.663Z,100390.86
2018-10-12T07:06:29.137Z,100395.65
2018-10-12T07:09:01.520Z,100394.70
2018-10-12T07:11:31.971Z,100399.97
2018-10-12T07:14:03.481Z,100401.00
2018-10-12T07:16:37.085Z,100401.92
2018-10-12T07:19:08.706Z,100414.34
2018-10-12T07:21:40.479Z,100418.62
2018-10-12T07:24:12.250Z,100418.92
2018-10-12T07:26:47.136Z,100403.14
2018-10-12T07:29:23.096Z,100425.50
2018-10-12T07:31:54.154Z,100423.13
2018-10-12T07:34:26.146Z,100413.94
2018-10-12T07:36:58.655Z,100419.72
2018-10-12T07:39:30.891Z,100368.59
2018-10-12T07:42:03.903Z,100413.44
2018-10-12T07:44:36.265Z,100433.11
2018-10-12T07:47:07.260Z,100423.38
2018-10-12T07:49:37.558Z,100427.29
2018-10-12T07:52:07.983Z,100425.13
2018-10-12T07:54:38.167Z,100429.79
2018-10-12T07:57:17.020Z,100434.45
2018-10-12T07:59:48.365Z,100439.72
2018-10-12T08:02:21.127Z,100446.33
2018-10-12T08:04:52.812Z,100448.42
2018-10-12T08:07:23.120Z,100440.44
2018-10-12T08:09:53.901Z,100445.74
2018-10-12T08:12:24.327Z,100444.44
2018-10-12T08:14:54.544Z,100444.22
2018-10-12T08:17:24.467Z,100434.84
2018-10-12T08:19:56.377Z,100455.55
2018-10-12T08:22:27.950Z,100457.08
2018-10-12T08:24:58.817Z,100464.05
2018-10-12T08:27:31.220Z,100473.76
2018-10-12T08:30:03.147Z,100465.68
2018-10-12T08:32:35.156Z,100469.70
2018-10-12T08:35:06.351Z,100473.47
2018-10-12T08:37:38.342Z,100384.14
2018-10-12T08:40:09.308Z,100475.41
2018-10-12T08:42:40.382Z,100481.07
2018-10-12T08:45:14.508Z,100472.62
2018-10-12T08:47:44.325Z,100479.07
2018-10-12T08:50:15.441Z,100488.09
2018-10-12T08:52:45.480Z,100485.53
2018-10-12T08:55:16.803Z,100486.39
2018-10-12T08:57:48.363Z,100488.91
2018-10-12T09:00:18.562Z,100491.25
2018-10-12T09:02:52.351Z,100482.89
2018-10-12T09:05:24.029Z,100485.91
2018-10-12T09:07:54.623Z,100488.48
2018-10-12T09:10:24.860Z,100480.87
2018-10-12T09:12:54.571Z,100487.91
2018-10-12T09:15:25.421Z,100496.55
2018-10-12T09:17:56.722Z,100497.93
2018-10-12T09:20:27.238Z,100492.72
2018-10-12T09:22:58.425Z,100502.69
2018-10-12T09:25:30.081Z,100506.88
2018-10-12T09:28:03.154Z,100498.05
2018-10-12T09:30:33.341Z,100512.89
2018-10-12T09:33:03.861Z,100516.73
2018-10-12T09:35:35.713Z,100516.48
2018-10-12T09:38:07.683Z,100510.54
2018-10-12T09:40:37.668Z,100513.00
2018-10-12T09:43:09.013Z,100513.88
2018-10-12T09:45:40.446Z,100516.03
2018-10-12T09:48:12.898Z,100510.34
2018-10-12T09:50:43.579Z,100515.28
2018-10-12T09:53:14.512Z,100514.72
2018-10-12T09:55:44.518Z,100511.50
2018-10-12T09:58:17.825Z,100509.02
2018-10-12T10:00:53.499Z,100498.53
2018-10-12T10:04:31.917Z,100500.22
2018-10-12T10:07:09.007Z,100509.85
2018-10-12T10:09:39.307Z,100502.09
2018-10-12T10:12:10.064Z,100507.58
2018-10-12T10:17:04.453Z,100504.03
2018-10-12T10:19:35.081Z,100506.78
2018-10-12T10:22:06.519Z,100508.42
2018-10-12T10:24:36.691Z,100500.66
2018-10-12T10:27:08.372Z,100506.50
2018-10-12T10:29:39.081Z,100502.41
2018-10-12T10:32:10.048Z,100500.38
2018-10-12T10:34:44.314Z,100500.81
2018-10-12T10:37:15.131Z,100502.56
2018-10-12T10:39:45.686Z,100499.03
2018-10-12T10:42:17.872Z,100431.06
2018-10-12T10:44:48.184Z,100493.23
2018-10-12T10:47:20.124Z,100478.72
2018-10-12T10:49:50.791Z,100478.26
2018-10-12T10:52:24.329Z,100385.59
2018-10-12T10:54:56.204Z,100470.63
2018-10-12T10:57:26.693Z,100470.00
2018-10-12T10:59:57.761Z,100471.23
2018-10-12T11:02:28.040Z,100475.35
2018-10-12T11:05:00.180Z,100473.75
2018-10-12T11:07:35.835Z,100454.16
2018-10-12T11:10:08.337Z,100464.02
2018-10-12T11:12:41.077Z,100459.81
2018-10-12T11:15:14.183Z,100461.56
2018-10-12T11:17:46.595Z,100454.38
2018-10-12T11:20:16.253Z,100454.35
2018-10-12T11:22:48.921Z,100453.75
2018-10-12T11:25:20.293Z,100460.52
2018-10-12T11:27:53.198Z,100456.99
2018-10-12T11:30:25.349Z,100454.94
2018-10-12T11:32:58.105Z,100456.20
2018-10-12T11:35:33.484Z,100452.02
2018-10-12T11:38:06.973Z,100448.08
2018-10-12T11:40:36.849Z,100450.20
2018-10-12T11:43:19.662Z,100396.80
2018-10-12T11:45:52.028Z,100436.06
2018-10-12T11:48:26.394Z,100439.92
2018-10-12T11:50:57.475Z,100441.70
2018-10-12T11:53:31.895Z,100444.97
2018-10-12T11:56:04.639Z,100448.79
2018-10-12T11:58:38.808Z,100450.46
2018-10-12T12:01:10.934Z,100439.63
2018-10-12T12:03:42.600Z,100437.23
2018-10-12T12:06:14.273Z,100436.72
2018-10-12T12:08:48.694Z,100430.03
2018-10-12T12:11:21.279Z,100439.41
2018-10-12T12:13:55.354Z,100424.47
2018-10-12T12:16:26.749Z,100429.75
2018-10-12T12:19:01.166Z,100418.98
2018-10-12T12:21:35.279Z,100422.56
2018-10-12T12:24:06.049Z,100423.22
2018-10-12T12:26:40.411Z,100420.70
2018-10-12T12:29:11.732Z,100413.56
2018-10-12T12:31:43.101Z,100410.28
2018-10-12T12:34:14.424Z,100422.77
2018-10-12T12:36:46.567Z,100415.42
2018-10-12T12:39:18.269Z,100410.40
2018-10-12T12:41:48.644Z,100415.61
2018-10-12T12:44:19.475Z,100411.48
2018-10-12T12:46:50.349Z,100413.56
2018-10-12T12:49:22.893Z,100409.41
2018-10-12T12:51:53.960Z,100406.30
2018-10-12T12:54:27.320Z,100414.37
2018-10-12T12:56:59.416Z,100409.89
2018-10-12T12:59:30.081Z,100409.91
2018-10-12T13:02:01.876Z,100412.65
2018-10-12T13:04:35.075Z,100408.61
2018-10-12T13:07:06.808Z,100401.23
2018-10-12T13:09:38.583Z,100402.11
2018-10-12T13:12:12.712Z,100398.47
2018-10-12T13:14:45.505Z,100402.30
2018-10-12T13:17:18.743Z,100405.03
2018-10-12T13:19:53.840Z,100407.19
2018-10-12T13:22:26.756Z,100408.75
2018-10-12T13:24:58.860Z,100406.86
2018-10-12T13:27:35.737Z,100400.83
2018-10-12T13:30:08.082Z,100404.65
2018-10-12T13:32:40.943Z,100402.32
2018-10-12T13:35:12.026Z,100403.27
2018-10-12T13:37:44.706Z,100402.41
2018-10-12T13:40:18.564Z,100406.73
2018-10-12T13:42:49.434Z,100402.98
2018-10-12T13:45:24.820Z,100405.17
2018-10-12T13:47:56.488Z,100412.03
2018-10-12T13:50:30.771Z,100410.77
2018-10-12T13:53:04.174Z,100409.82
2018-10-12T13:55:36.969Z,100414.01
2018-10-12T13:58:08.439Z,100394.66
2018-10-12T14:00:41.296Z,100405.06
2018-10-12T14:03:13.456Z,100405.33
2018-10-12T14:05:49.285Z,100399.34
2018-10-12T14:08:21.673Z,100397.67
2018-10-12T14:10:57.470Z,100387.95
2018-10-12T14:13:30.954Z,100394.26
2018-10-12T14:16:03.095Z,100398.46
2018-10-12T14:18:36.383Z,100398.62
2018-10-12T14:21:08.672Z,100392.03
2018-10-12T14:23:41.912Z,100402.98
2018-10-12T14:26:15.745Z,100399.27
2018-10-12T14:28:47.878Z,100399.84
2018-10-12T14:31:20.651Z,100402.94
2018-10-12T14:33:52.529Z,100401.17
2018-10-12T14:36:23.866Z,100399.95
2018-10-12T14:38:59.268Z,100395.38
2018-10-12T14:41:33.615Z,100409.19
2018-10-12T14:44:08.328Z,100398.31
2018-10-12T14:46:40.508Z,100397.39
2018-10-12T14:49:15.141Z,100405.53
2018-10-12T14:51:47.450Z,100405.77
2018-10-12T14:54:19.689Z,100399.33
2018-10-12T14:56:53.117Z,100390.80
2018-10-12T14:59:30.553Z,100404.23
2018-10-12T15:02:04.251Z,100406.67
2018-10-12T15:04:38.916Z,100412.95
2018-10-12T15:07:15.437Z,100402.84
2018-10-12T15:09:47.378Z,100405.88
2018-10-12T15:12:24.763Z,100402.50
2018-10-12T15:15:07.511Z,100412.00
2018-10-12T15:17:41.707Z,100405.53
2018-10-12T15:20:13.486Z,100412.98
2018-10-12T15:22:50.483Z,100413.13
2018-10-12T15:25:25.094Z,100412.49
2018-10-12T15:28:02.436Z,100415.66
2018-10-12T15:30:34.786Z,100410.37
2018-10-12T15:33:07.422Z,100416.64
2018-10-12T15:35:41.908Z,100413.49
2018-10-12T15:38:19.650Z,100422.12
2018-10-12T15:40:53.237Z,100411.39
2018-10-12T15:43:37.396Z,100417.21
2018-10-12T15:46:09.901Z,100414.25
2018-10-12T15:48:42.797Z,100413.50
2018-10-12T15:51:14.362Z,100417.59
2018-10-12T15:53:49.229Z,100419.76
2018-10-12T15:56:22.197Z,100421.94
2018-10-12T15:58:55.712Z,100421.38
2018-10-12T16:01:31.559Z,100422.00
2018-10-12T16:04:05.321Z,100426.59
2018-10-12T16:06:38.504Z,100421.14
2018-10-12T16:09:11.247Z,100417.95
2018-10-12T16:11:45.366Z,100428.05
2018-10-12T16:14:17.505Z,100422.17
2018-10-12T16:16:51.320Z,100418.30
2018-10-12T16:19:24.703Z,100419.36
2018-10-12T16:21:57.816Z,100413.96
2018-10-12T16:24:30.610Z,100419.95
2018-10-12T16:27:03.587Z,100419.14
2018-10-12T16:29:36.687Z,100415.03
2018-10-12T16:32:09.415Z,100420.82
2018-10-12T16:34:42.049Z,100432.36
2018-10-12T16:37:18.103Z,100428.34
2018-10-12T16:39:48.685Z,100408.53
2018-10-12T16:42:19.507Z,100428.30
2018-10-12T16:44:53.516Z,100433.82
2018-10-12T16:47:26.698Z,100430.06
2018-10-12T16:49:59.542Z,100439.41
2018-10-12T16:52:32.333Z,100435.58
2018-10-12T16:55:10.650Z,100438.34
2018-10-12T16:57:47.873Z,100420.50
2018-10-12T17:00:26.116Z,100431.78
2018-10-12T17:03:05.573Z,100434.02
2018-10-12T17:08:17.937Z,100439.52
2018-10-12T17:10:50.103Z,100442.26
2018-10-12T17:13:24.723Z,100451.59
2018-10-12T17:15:56.462Z,100446.09
2018-10-12T17:18:29.008Z,100443.07
2018-10-12T17:27:07.694Z,100449.44
2018-10-12T17:29:39.825Z,100455.86
2018-10-12T17:32:13.129Z,100455.73
2018-10-12T17:34:45.279Z,100452.78
2018-10-12T17:37:19.435Z,100457.23
2018-10-12T17:39:50.157Z,100458.56
2018-10-12T17:42:23.230Z,100457.42
2018-10-12T17:44:56.592Z,100458.63
2018-10-12T17:47:34.263Z,100463.87
2018-10-12T17:50:06.377Z,100468.63
2018-10-12T17:52:38.936Z,100473.69
2018-10-12T17:55:12.495Z,100468.11
2018-10-12T17:57:42.595Z,100474.83
2018-10-12T18:00:25.724Z,100473.35
2018-10-12T18:02:58.101Z,100466.41
2018-10-12T18:05:33.486Z,100474.30
2018-10-12T18:08:10.128Z,100477.73
2018-10-12T18:10:49.167Z,100476.48
2018-10-12T18:13:21.263Z,100480.44
2018-10-12T18:15:54.709Z,100478.80
2018-10-12T18:18:25.517Z,100481.89
2018-10-12T18:20:59.605Z,100475.88
2018-10-12T18:23:32.655Z,100485.09
2018-10-12T18:26:08.253Z,100491.11
2018-10-12T18:28:42.140Z,100494.09
2018-10-12T18:31:17.144Z,100490.37
2018-10-12T18:33:47.468Z,100493.33
2018-10-12T18:36:20.299Z,100492.64
2018-10-12T18:38:52.747Z,100485.67
2018-10-12T18:41:26.008Z,100493.20
2018-10-12T18:43:57.825Z,100488.96
2018-10-12T18:46:27.557Z,100488.13
2018-10-12T18:49:04.744Z,100483.30
2018-10-12T18:51:37.550Z,100491.58
2018-10-12T18:54:11.677Z,100492.55
2018-10-12T18:56:44.597Z,100495.66
2018-10-12T18:59:19.567Z,100502.53
2018-10-12T19:01:52.798Z,100494.87
2018-10-12T19:04:26.395Z,100501.25
2018-10-12T19:07:00.536Z,100496.48
2018-10-12T19:09:35.450Z,100494.95
2018-10-12T19:12:12.144Z,100498.52
2018-10-12T19:17:07.998Z,100497.61
2018-10-12T19:19:44.477Z,100502.34
2018-10-12T19:22:17.262Z,100479.98
2018-10-12T19:24:50.581Z,100502.69
2018-10-12T19:27:26.177Z,100505.91
2018-10-12T19:32:48.165Z,100499.57
2018-10-12T19:35:34.357Z,100503.84
2018-10-12T19:38:04.012Z,100503.28
2018-10-12T19:40:36.516Z,100503.42
2018-10-12T19:43:09.139Z,100511.46
2018-10-12T19:45:41.372Z,100510.14
2018-10-12T19:48:12.988Z,100513.25
2018-10-12T19:50:43.613Z,100516.88
2018-10-12T19:53:16.768Z,100515.65
2018-10-12T19:55:46.546Z,100513.72
2018-10-12T19:58:17.507Z,100513.60
2018-10-12T20:00:49.045Z,100514.47
2018-10-12T20:03:21.579Z,100514.03
2018-10-12T20:05:54.441Z,100521.46
2018-10-12T20:08:26.259Z,100519.44
2018-10-12T20:10:59.130Z,100527.79
2018-10-12T20:13:28.908Z,100527.44
2018-10-12T20:16:00.572Z,100527.48
2018-10-12T20:18:31.673Z,100528.80
2018-10-12T20:21:02.568Z,100532.64
2018-10-12T20:23:34.076Z,100529.19
2018-10-12T20:26:05.842Z,100528.58
2018-10-12T20:28:38.161Z,100528.80
2018-10-12T20:31:09.408Z,100527.95
2018-10-12T20:33:42.983Z,100530.23
2018-10-12T20:36:13.501Z,100533.06
2018-10-12T20:38:43.294Z,100532.94
2018-10-12T20:41:21.307Z,100535.30
2018-10-12T20:43:53.665Z,100529.55
2018-10-12T20:46:26.118Z,100531.19
2018-10-12T20:48:56.542Z,100517.72
2018-10-12T20:51:26.916Z,100532.98
2018-10-12T20:54:02.734Z,100538.27
2018-10-12T20:56:36.763Z,100534.63
2018-10-12T20:59:07.871Z,100530.55
2018-10-12T21:01:38.140Z,100533.95
2018-10-12T21:04:11.335Z,100535.37
2018-10-12T21:06:42.252Z,100537.19
2018-10-12T21:09:12.979Z,100537.19
2018-10-12T21:11:44.803Z,100535.86
2018-10-12T21:14:15.518Z,100539.04
2018-10-12T21:16:45.181Z,100540.92
2018-10-12T21:19:16.822Z,100540.92
2018-10-12T21:21:50.260Z,100538.54
2018-10-12T21:24:21.787Z,100536.22
2018-10-12T21:26:52.150Z,100541.84
2018-10-12T21:29:22.711Z,100536.61
2018-10-12T21:31:53.926Z,100532.86
2018-10-12T21:34:24.563Z,100427.03
2018-10-12T21:36:55.839Z,100541.48
2018-10-12T21:39:25.973Z,100538.84
2018-10-12T21:41:56.867Z,100543.69
2018-10-12T21:44:28.662Z,100540.05
2018-10-12T21:47:16.172Z,100535.91
2018-10-12T21:49:46.361Z,100536.58
2018-10-12T21:52:18.370Z,100533.41
2018-10-12T21:54:49.687Z,100530.93
2018-10-12T21:57:19.570Z,100530.09
2018-10-12T21:59:53.631Z,100533.03
2018-10-12T22:02:25.584Z,100530.47
2018-10-12T22:04:57.207Z,100519.83
2018-10-12T22:16:42.319Z,100515.14
2018-10-12T22:19:13.487Z,100471.26
2018-10-12T22:21:47.731Z,100517.99
2018-10-12T22:24:18.008Z,100516.95
2018-10-12T22:26:51.560Z,100510.55
2018-10-12T22:29:23.232Z,100476.47
2018-10-12T22:31:57.184Z,100511.69
2018-10-12T22:34:28.775Z,100508.20
2018-10-12T22:37:42.024Z,100501.11
2018-10-12T22:40:13.008Z,100497.72
2018-10-12T22:42:48.365Z,100502.60
2018-10-12T22:45:33.103Z,100496.95
2018-10-12T22:48:08.726Z,100498.77
2018-10-12T22:50:43.970Z,100492.41
2018-10-12T22:53:18.102Z,100495.13
2018-10-12T22:55:57.780Z,100491.42
2018-10-12T23:01:50.366Z,100496.95
2018-10-12T23:04:20.769Z,100492.34
2018-10-12T23:06:50.635Z,100486.93
2018-10-12T23:09:20.622Z,100489.41
2018-10-12T23:11:51.388Z,100473.39
2018-10-12T23:14:23.823Z,100491.74
2018-10-12T23:16:53.781Z,100464.73
2018-10-12T23:19:23.596Z,100485.77
2018-10-12T23:21:55.112Z,100481.48
2018-10-12T23:24:25.015Z,100483.63
2018-10-12T23:26:56.111Z,100460.99
2018-10-12T23:29:27.526Z,100480.45
2018-10-12T23:31:58.891Z,100485.58
2018-10-12T23:34:28.983Z,100477.67
2018-10-12T23:37:00.240Z,100472.31
2018-10-12T23:39:30.741Z,100476.38
2018-10-12T23:42:00.290Z,100473.35
2018-10-12T23:44:31.749Z,100481.74
2018-10-12T23:47:02.551Z,100482.72
2018-10-12T23:49:35.172Z,100476.59
2018-10-12T23:52:13.091Z,100480.13
2018-10-12T23:54:44.176Z,100474.11
2018-10-12T23:57:14.580Z,100475.92
2018-10-12T23:59:46.625Z,100479.83
